createdAt,value
2018-09-18T00:00:03.008Z,7.13
2018-09-18T00:02:31.371Z,7.40
2018-09-18T00:04:59.749Z,7.33
2018-09-18T00:07:28.189Z,7.60
2018-09-18T00:09:56.525Z,7.40
2018-09-18T00:12:24.929Z,7.53
2018-09-18T00:14:53.283Z,7.47
2018-09-18T00:17:21.698Z,7.77
2018-09-18T00:19:50.064Z,7.27
2018-09-18T00:22:18.541Z,8.07
2018-09-18T00:24:46.889Z,7.57
2018-09-18T00:27:15.234Z,7.70
2018-09-18T00:29:43.592Z,7.17
2018-09-18T00:32:11.925Z,7.00
2018-09-18T00:34:40.283Z,6.60
2018-09-18T00:37:08.635Z,7.03
2018-09-18T00:39:37.015Z,7.90
2018-09-18T00:42:05.366Z,7.20
2018-09-18T00:44:33.704Z,7.30
2018-09-18T00:47:02.035Z,7.60
2018-09-18T00:49:30.388Z,7.77
2018-09-18T00:51:58.720Z,6.63
2018-09-18T00:54:27.132Z,7.10
2018-09-18T00:56:55.481Z,7.93
2018-09-18T00:59:23.833Z,6.83
2018-09-18T01:01:52.732Z,6.73
2018-09-18T01:04:21.091Z,6.47
2018-09-18T01:06:49.435Z,7.07
2018-09-18T01:09:17.848Z,6.63
2018-09-18T01:11:46.191Z,7.03
2018-09-18T01:14:14.536Z,6.27
2018-09-18T01:16:42.884Z,6.47
2018-09-18T01:19:11.248Z,6.90
2018-09-18T01:21:39.635Z,6.27
2018-09-18T01:24:07.970Z,6.03
2018-09-18T01:26:36.356Z,5.87
2018-09-18T01:29:04.724Z,5.80
2018-09-18T01:31:33.072Z,6.10
2018-09-18T01:34:01.401Z,6.40
2018-09-18T01:36:29.757Z,6.40
2018-09-18T01:45:58.287Z,5.27
2018-09-18T01:48:26.632Z,6.20
2018-09-18T01:50:54.970Z,5.83
2018-09-18T01:53:23.314Z,5.50
2018-09-18T01:55:51.660Z,5.37
2018-09-18T01:58:20.004Z,5.60
2018-09-18T02:00:48.383Z,5.63
2018-09-18T02:03:16.760Z,6.47
2018-09-18T02:05:45.135Z,6.20
2018-09-18T02:08:13.482Z,5.93
2018-09-18T02:10:41.850Z,5.73
2018-09-18T02:13:10.224Z,6.07
2018-09-18T02:15:38.572Z,5.50
2018-09-18T02:18:06.907Z,5.40
2018-09-18T02:20:35.250Z,5.20
2018-09-18T02:23:03.750Z,6.07
2018-09-18T02:25:32.104Z,6.10
2018-09-18T02:28:00.436Z,5.53
2018-09-18T02:30:28.813Z,5.90
2018-09-18T02:32:57.167Z,6.10
2018-09-18T02:35:25.471Z,6.37
2018-09-18T02:37:53.801Z,6.20
2018-09-18T02:40:22.154Z,5.67
2018-09-18T02:42:50.556Z,5.63
2018-09-18T02:45:18.901Z,6.40
2018-09-18T02:47:47.256Z,6.60
2018-09-18T02:50:15.692Z,6.53
2018-09-18T02:52:44.044Z,6.87
2018-09-18T02:55:12.407Z,5.93
2018-09-18T02:57:40.760Z,6.10
2018-09-18T03:00:09.112Z,6.40
2018-09-18T03:02:37.459Z,6.07
2018-09-18T03:05:05.843Z,6.07
2018-09-18T03:07:34.187Z,6.10
2018-09-18T03:10:02.552Z,5.73
2018-09-18T03:12:30.899Z,6.10
2018-09-18T03:14:59.230Z,6.27
2018-09-18T03:17:27.626Z,5.70
2018-09-18T03:19:55.958Z,6.23
2018-09-18T03:22:24.314Z,5.97
2018-09-18T03:24:52.661Z,6.17
2018-09-18T03:27:21.025Z,6.23
2018-09-18T03:29:49.384Z,6.27
2018-09-18T03:32:17.749Z,5.43
2018-09-18T03:34:46.114Z,6.57
2018-09-18T03:37:14.493Z,6.27
2018-09-18T03:39:42.840Z,6.10
2018-09-18T03:42:11.300Z,6.03
2018-09-18T03:44:39.701Z,6.30
2018-09-18T03:47:08.069Z,6.67
2018-09-18T03:49:36.421Z,6.40
2018-09-18T03:52:04.763Z,6.93
2018-09-18T03:54:33.111Z,6.57
2018-09-18T03:57:01.459Z,6.80
2018-09-18T03:59:29.900Z,7.00
2018-09-18T04:01:58.295Z,7.47
2018-09-18T04:04:26.661Z,7.00
2018-09-18T04:06:55.009Z,7.17
2018-09-18T04:09:23.388Z,6.93
2018-09-18T04:11:51.760Z,7.13
2018-09-18T04:14:20.095Z,6.80
2018-09-18T04:16:48.416Z,7.07
2018-09-18T04:19:16.760Z,7.37
2018-09-18T04:21:45.107Z,6.97
2018-09-18T04:24:13.461Z,7.00
2018-09-18T04:26:42.215Z,7.80
2018-09-18T04:29:10.912Z,7.10
2018-09-18T04:31:40.795Z,7.37
2018-09-18T04:34:09.285Z,6.83
2018-09-18T04:36:37.676Z,7.33
2018-09-18T04:39:10.311Z,7.57
2018-09-18T04:41:38.732Z,7.07
2018-09-18T04:44:07.672Z,7.80
2018-09-18T04:46:36.031Z,8.00
2018-09-18T04:49:04.473Z,7.57
2018-09-18T04:51:32.861Z,7.43
2018-09-18T04:54:01.224Z,7.43
2018-09-18T04:56:29.930Z,7.60
2018-09-18T04:58:58.363Z,7.77
2018-09-18T05:01:26.727Z,7.87
2018-09-18T05:03:55.081Z,7.47
2018-09-18T05:06:23.431Z,9.07
2018-09-18T05:08:51.788Z,7.60
2018-09-18T05:11:20.187Z,8.30
2018-09-18T05:13:48.681Z,8.23
2018-09-18T05:16:17.003Z,7.93
2018-09-18T05:18:45.351Z,9.00
2018-09-18T05:21:13.708Z,8.17
2018-09-18T05:23:42.065Z,8.23
2018-09-18T05:26:10.476Z,8.80
2018-09-18T05:28:39.154Z,8.30
2018-09-18T05:31:07.505Z,9.30
2018-09-18T05:33:35.859Z,8.07
2018-09-18T05:36:04.195Z,8.37
2018-09-18T05:38:32.547Z,8.57
2018-09-18T05:41:01.027Z,8.53
2018-09-18T05:43:29.431Z,8.67
2018-09-18T05:45:57.792Z,7.93
2018-09-18T05:48:26.215Z,8.77
2018-09-18T05:50:54.562Z,8.70
2018-09-18T05:53:22.921Z,8.80
2018-09-18T05:55:51.300Z,9.40
2018-09-18T05:58:19.644Z,9.33
2018-09-18T06:00:48.041Z,8.63
2018-09-18T06:03:16.375Z,9.20
2018-09-18T06:05:44.733Z,9.07
2018-09-18T06:08:13.057Z,8.83
2018-09-18T06:10:41.410Z,9.63
2018-09-18T06:13:09.833Z,9.83
2018-09-18T06:15:38.208Z,8.93
2018-09-18T06:18:06.556Z,9.60
2018-09-18T06:20:34.936Z,9.67
2018-09-18T06:23:03.314Z,9.47
2018-09-18T06:25:31.683Z,9.67
2018-09-18T06:28:00.026Z,9.93
2018-09-18T06:30:28.356Z,9.87
2018-09-18T06:32:56.718Z,10.00
2018-09-18T06:35:25.060Z,10.40
2018-09-18T06:37:53.386Z,9.47
2018-09-18T06:40:21.769Z,10.13
2018-09-18T06:42:50.125Z,10.60
2018-09-18T06:45:18.487Z,10.40
2018-09-18T06:47:46.855Z,9.77
2018-09-18T06:50:15.194Z,10.57
2018-09-18T06:52:43.567Z,9.93
2018-09-18T06:55:11.933Z,9.57
2018-09-18T06:57:40.340Z,9.83
2018-09-18T07:00:08.688Z,9.77
2018-09-18T07:02:37.052Z,9.50
2018-09-18T07:05:05.404Z,9.57
2018-09-18T07:07:33.798Z,9.40
2018-09-18T07:10:02.162Z,8.83
2018-09-18T07:12:30.774Z,8.77
2018-09-18T07:14:59.259Z,9.03
2018-09-18T07:17:27.601Z,8.77
2018-09-18T07:19:55.964Z,8.57
2018-09-18T07:22:24.364Z,8.83
2018-09-18T07:24:52.807Z,9.37
2018-09-18T07:27:21.160Z,8.90
2018-09-18T07:29:49.532Z,8.40
2018-09-18T07:32:17.877Z,9.23
2018-09-18T07:34:46.235Z,8.87
2018-09-18T07:37:14.646Z,8.93
2018-09-18T07:39:42.986Z,7.73
2018-09-18T07:42:11.329Z,8.10
2018-09-18T07:44:39.920Z,7.90
2018-09-18T07:47:08.509Z,7.53
2018-09-18T07:49:36.853Z,7.67
2018-09-18T07:52:05.278Z,7.87
2018-09-18T07:54:33.622Z,7.30
2018-09-18T07:57:02.002Z,7.50
2018-09-18T07:59:30.386Z,7.57
2018-09-18T08:01:58.843Z,7.13
2018-09-18T08:04:27.189Z,7.43
2018-09-18T08:06:55.545Z,7.73
2018-09-18T08:09:23.913Z,6.70
2018-09-18T08:11:52.360Z,7.43
2018-09-18T08:14:20.671Z,7.87
2018-09-18T08:16:49.022Z,7.67
2018-09-18T08:19:17.429Z,6.50
2018-09-18T08:21:45.798Z,6.73
2018-09-18T08:24:14.161Z,6.97
2018-09-18T08:26:42.499Z,7.30
2018-09-18T08:29:10.856Z,7.30
2018-09-18T08:31:39.247Z,6.10
2018-09-18T08:34:07.592Z,7.10
2018-09-18T08:36:35.944Z,7.43
2018-09-18T08:39:06.095Z,7.00
2018-09-18T08:41:34.502Z,6.93
2018-09-18T08:44:02.884Z,7.50
2018-09-18T08:46:31.267Z,7.53
2018-09-18T08:48:59.660Z,7.93
2018-09-18T08:51:28.693Z,7.50
2018-09-18T08:53:57.069Z,7.47
2018-09-18T08:56:25.445Z,7.23
2018-09-18T08:58:53.957Z,7.15
2018-09-18T09:01:22.357Z,8.13
2018-09-18T09:03:50.741Z,8.10
2018-09-18T09:06:19.131Z,8.18
2018-09-18T09:08:47.605Z,7.90
2018-09-18T09:11:15.895Z,8.03
2018-09-18T09:13:44.305Z,7.45
2018-09-18T09:16:12.805Z,8.03
2018-09-18T09:18:41.188Z,7.72
2018-09-18T09:21:09.609Z,7.90
2018-09-18T09:23:37.948Z,7.30
2018-09-18T09:26:06.970Z,7.70
2018-09-18T09:28:35.598Z,7.65
2018-09-18T09:31:04.492Z,7.10
2018-09-18T09:33:32.830Z,6.53
2018-09-18T09:36:01.227Z,6.60
2018-09-18T09:38:29.655Z,5.85
2018-09-18T09:40:58.340Z,5.90
2018-09-18T09:43:26.715Z,6.17
2018-09-18T09:45:55.114Z,5.72
2018-09-18T09:48:23.622Z,5.45
2018-09-18T09:50:51.984Z,5.70
2018-09-18T09:53:20.416Z,5.58
2018-09-18T09:55:49.087Z,5.47
2018-09-18T09:58:17.415Z,5.50
2018-09-18T10:00:51.389Z,4.90
2018-09-18T10:03:19.704Z,4.90
2018-09-18T10:05:48.045Z,4.37
2018-09-18T10:08:16.377Z,4.83
2018-09-18T10:10:44.815Z,4.10
2018-09-18T10:13:13.216Z,4.35
2018-09-18T10:15:41.553Z,4.10
2018-09-18T10:18:09.955Z,4.35
2018-09-18T10:20:38.248Z,4.10
2018-09-18T10:23:06.801Z,4.42
2018-09-18T10:25:35.139Z,4.58
2018-09-18T10:28:03.603Z,4.17
2018-09-18T10:30:31.962Z,4.70
2018-09-18T10:33:00.284Z,4.60
2018-09-18T10:35:28.679Z,5.30
2018-09-18T10:37:57.008Z,5.65
2018-09-18T10:40:25.352Z,5.83
2018-09-18T10:42:53.828Z,6.33
2018-09-18T10:45:22.100Z,6.60
2018-09-18T10:47:50.461Z,6.42
2018-09-18T10:50:18.804Z,5.83
2018-09-18T10:52:47.173Z,5.05
2018-09-18T10:55:15.536Z,3.40
2018-09-18T10:57:43.871Z,3.58
2018-09-18T11:00:12.262Z,3.87
2018-09-18T11:02:40.605Z,3.98
2018-09-18T11:05:08.954Z,3.72
2018-09-18T11:07:37.376Z,3.72
2018-09-18T11:10:06.119Z,3.95
2018-09-18T11:12:34.493Z,4.30
2018-09-18T11:15:02.875Z,4.30
2018-09-18T11:17:31.725Z,4.40
2018-09-18T11:20:00.092Z,4.28
2018-09-18T11:22:28.602Z,4.45
2018-09-18T11:24:56.874Z,4.50
2018-09-18T11:27:25.179Z,4.67
2018-09-18T11:29:53.523Z,4.50
2018-09-18T11:32:21.883Z,4.75
2018-09-18T11:34:50.241Z,4.30
2018-09-18T11:37:18.587Z,5.07
2018-09-18T11:39:46.951Z,4.43
2018-09-18T11:42:15.272Z,4.50
2018-09-18T11:44:43.622Z,4.30
2018-09-18T11:47:12.821Z,4.17
2018-09-18T11:49:41.164Z,4.30
2018-09-18T11:52:09.513Z,4.23
2018-09-18T11:54:37.868Z,4.30
2018-09-18T11:57:06.217Z,4.93
2018-09-18T11:59:34.538Z,4.50
2018-09-18T12:02:02.895Z,4.83
2018-09-18T12:04:31.237Z,4.70
2018-09-18T12:06:59.584Z,4.60
2018-09-18T12:09:27.948Z,4.67
2018-09-18T12:11:56.719Z,4.43
2018-09-18T12:14:25.329Z,4.80
2018-09-18T12:16:53.668Z,4.10
2018-09-18T12:19:21.993Z,4.37
2018-09-18T12:21:50.370Z,4.80
2018-09-18T12:24:18.719Z,4.63
2018-09-18T12:26:47.056Z,4.03
2018-09-18T12:29:15.471Z,4.47
2018-09-18T12:31:43.816Z,4.50
2018-09-18T12:34:12.196Z,4.70
2018-09-18T12:36:40.619Z,4.40
2018-09-18T12:39:09.833Z,4.40
2018-09-18T12:41:38.678Z,4.00
2018-09-18T12:44:07.395Z,3.97
2018-09-18T12:46:35.700Z,4.13
2018-09-18T12:49:04.071Z,4.70
2018-09-18T12:51:32.397Z,4.30
2018-09-18T12:54:00.768Z,4.93
2018-09-18T12:56:29.116Z,4.80
2018-09-18T12:58:57.593Z,5.10
2018-09-18T13:01:25.838Z,5.23
2018-09-18T13:03:54.180Z,4.83
2018-09-18T13:06:22.687Z,4.80
2018-09-18T13:08:50.890Z,4.90
2018-09-18T13:11:19.217Z,5.50
2018-09-18T13:13:47.596Z,5.17
2018-09-18T13:16:16.000Z,4.60
2018-09-18T13:18:44.348Z,4.20
2018-09-18T13:21:12.692Z,4.67
2018-09-18T13:23:41.041Z,5.33
2018-09-18T13:26:09.558Z,4.90
2018-09-18T13:28:38.037Z,4.80
2018-09-18T13:31:06.386Z,4.63
2018-09-18T13:33:34.688Z,4.30
2018-09-18T13:36:03.022Z,4.00
2018-09-18T13:38:31.406Z,4.50
2018-09-18T13:40:59.809Z,3.73
2018-09-18T13:43:28.104Z,4.53
2018-09-18T13:45:56.461Z,4.37
2018-09-18T13:48:24.802Z,3.80
2018-09-18T13:50:53.146Z,3.80
2018-09-18T13:53:21.489Z,4.00
2018-09-18T13:55:49.899Z,3.67
2018-09-18T13:58:18.234Z,3.87
2018-09-18T14:00:46.572Z,3.90
2018-09-18T14:03:14.920Z,4.07
2018-09-18T14:05:43.254Z,3.63
2018-09-18T14:08:11.595Z,4.00
2018-09-18T14:10:39.927Z,3.90
2018-09-18T14:13:08.596Z,4.27
2018-09-18T14:15:36.903Z,4.13
2018-09-18T14:18:05.248Z,4.10
2018-09-18T14:20:33.607Z,3.50
2018-09-18T14:23:02.022Z,4.03
2018-09-18T14:25:30.379Z,4.20
2018-09-18T14:27:58.713Z,4.13
2018-09-18T14:30:27.040Z,4.20
2018-09-18T14:32:55.484Z,4.23
2018-09-18T14:35:23.877Z,4.17
2018-09-18T14:37:52.222Z,3.80
2018-09-18T14:40:20.723Z,4.23
2018-09-18T14:42:49.058Z,3.37
2018-09-18T14:45:17.426Z,3.53
2018-09-18T14:47:45.787Z,3.53
2018-09-18T14:50:14.042Z,3.83
2018-09-18T14:52:42.473Z,3.50
2018-09-18T14:55:10.856Z,3.80
2018-09-18T14:57:39.211Z,3.83
2018-09-18T15:00:07.611Z,4.00
2018-09-18T15:02:35.972Z,3.60
2018-09-18T15:05:04.302Z,4.00
2018-09-18T15:07:32.627Z,3.60
2018-09-18T15:10:00.937Z,3.63
2018-09-18T15:12:29.257Z,3.40
2018-09-18T15:14:57.593Z,3.33
2018-09-18T15:17:25.907Z,3.47
2018-09-18T15:19:54.287Z,3.23
2018-09-18T15:22:22.716Z,3.17
2018-09-18T15:24:51.030Z,3.10
2018-09-18T15:27:19.435Z,3.33
2018-09-18T15:29:47.771Z,3.80
2018-09-18T15:32:16.176Z,3.00
2018-09-18T15:34:44.550Z,3.37
2018-09-18T15:37:13.342Z,3.37
2018-09-18T15:39:41.841Z,3.27
2018-09-18T15:42:10.147Z,3.27
2018-09-18T15:44:38.497Z,3.17
2018-09-18T15:47:06.860Z,3.40
2018-09-18T15:49:35.810Z,3.40
2018-09-18T15:52:04.236Z,3.57
2018-09-18T15:54:32.539Z,3.40
2018-09-18T15:57:00.896Z,3.60
2018-09-18T15:59:29.209Z,3.40
2018-09-18T16:01:57.540Z,3.00
2018-09-18T16:04:25.860Z,2.93
2018-09-18T16:06:54.209Z,3.10
2018-09-18T16:09:22.577Z,3.37
2018-09-18T16:11:50.925Z,3.73
2018-09-18T16:14:19.312Z,3.60
2018-09-18T16:16:47.672Z,3.60
2018-09-18T16:19:16.438Z,3.50
2018-09-18T16:21:44.924Z,4.17
2018-09-18T16:24:13.311Z,3.40
2018-09-18T16:26:41.711Z,3.70
2018-09-18T16:29:10.198Z,4.17
2018-09-18T16:31:38.574Z,3.80
2018-09-18T16:34:06.920Z,5.63
2018-09-18T16:36:35.267Z,5.07
2018-09-18T16:39:03.672Z,4.37
2018-09-18T16:41:32.034Z,4.27
2018-09-18T16:44:00.357Z,4.30
2018-09-18T16:46:28.708Z,3.73
2018-09-18T16:48:57.187Z,4.40
2018-09-18T16:51:25.553Z,4.57
2018-09-18T16:53:53.904Z,5.30
2018-09-18T16:56:22.215Z,4.63
2018-09-18T16:58:50.606Z,4.90
2018-09-18T17:01:18.954Z,4.50
2018-09-18T17:03:47.294Z,4.50
2018-09-18T17:06:15.620Z,4.63
2018-09-18T17:08:43.945Z,4.83
2018-09-18T17:11:12.303Z,4.33
2018-09-18T17:13:40.959Z,5.57
2018-09-18T17:16:09.307Z,16.63
2018-09-18T17:18:37.697Z,17.50
2018-09-18T17:21:06.599Z,9.27
2018-09-18T17:23:35.431Z,7.03
2018-09-18T17:26:03.765Z,6.60
2018-09-18T17:28:32.201Z,6.20
2018-09-18T17:31:00.466Z,7.10
2018-09-18T17:33:28.859Z,6.80
2018-09-18T17:35:57.220Z,7.20
2018-09-18T17:38:25.603Z,18.63
2018-09-18T17:40:53.950Z,20.77
2018-09-18T17:43:22.547Z,14.80
2018-09-18T17:45:50.978Z,9.77
2018-09-18T17:48:19.338Z,14.17
2018-09-18T17:50:47.762Z,10.67
2018-09-18T17:53:16.075Z,8.40
2018-09-18T17:55:44.400Z,8.20
2018-09-18T17:58:12.776Z,8.40
2018-09-18T18:00:41.121Z,8.53
2018-09-18T18:03:09.513Z,7.20
2018-09-18T18:05:37.879Z,7.77
2018-09-18T18:08:06.265Z,7.17
2018-09-18T18:10:34.900Z,8.00
2018-09-18T18:13:03.251Z,23.73
2018-09-18T18:15:31.574Z,42.30
2018-09-18T18:18:00.013Z,15.33
2018-09-18T18:20:28.437Z,10.57
2018-09-18T18:22:56.735Z,8.40
2018-09-18T18:25:25.855Z,7.77
2018-09-18T18:27:54.196Z,26.77
2018-09-18T18:30:22.539Z,19.13
2018-09-18T18:32:51.146Z,12.13
2018-09-18T18:35:19.532Z,13.50
2018-09-18T18:37:47.880Z,10.60
2018-09-18T18:40:16.307Z,9.50
2018-09-18T18:42:44.691Z,9.20
2018-09-18T18:45:13.032Z,11.53
2018-09-18T18:47:41.564Z,9.63
2018-09-18T18:50:10.311Z,10.87
2018-09-18T18:52:38.676Z,9.27
2018-09-18T18:55:07.484Z,9.93
2018-09-18T18:57:35.828Z,8.90
2018-09-18T19:00:04.348Z,7.90
2018-09-18T19:02:32.677Z,8.30
2018-09-18T19:05:01.061Z,8.63
2018-09-18T19:07:29.971Z,13.57
2018-09-18T19:09:58.386Z,12.23
2018-09-18T19:12:27.029Z,11.53
2018-09-18T19:14:57.180Z,9.50
2018-09-18T19:17:27.132Z,8.07
2018-09-18T19:19:57.252Z,8.50
2018-09-18T19:22:26.605Z,8.67
2018-09-18T19:24:56.799Z,11.93
2018-09-18T19:27:26.623Z,8.43
2018-09-18T19:29:56.687Z,8.37
2018-09-18T19:32:26.394Z,11.20
2018-09-18T19:34:56.669Z,8.70
2018-09-18T19:37:28.771Z,8.33
2018-09-18T19:39:58.253Z,8.87
2018-09-18T19:42:28.100Z,7.33
2018-09-18T19:44:57.686Z,7.87
2018-09-18T19:47:27.850Z,6.73
2018-09-18T19:49:56.972Z,6.50
2018-09-18T19:52:25.615Z,7.23
2018-09-18T19:54:56.713Z,6.47
2018-09-18T19:57:26.731Z,5.73
2018-09-18T19:59:56.021Z,6.50
2018-09-18T20:02:26.936Z,7.30
2018-09-18T20:04:57.257Z,6.57
2018-09-18T20:07:27.220Z,7.30
2018-09-18T20:09:58.050Z,6.20
2018-09-18T20:12:28.229Z,6.37
2018-09-18T20:14:57.589Z,8.17
2018-09-18T20:17:27.702Z,10.30
2018-09-18T20:19:58.358Z,14.00
2018-09-18T20:22:27.945Z,12.00
2018-09-18T20:24:57.131Z,9.17
2018-09-18T20:27:27.119Z,8.03
2018-09-18T20:29:57.258Z,9.80
2018-09-18T20:32:27.441Z,8.73
2018-09-18T20:34:57.885Z,8.17
2018-09-18T20:37:27.526Z,6.73
2018-09-18T20:39:56.069Z,7.53
2018-09-18T20:42:26.173Z,8.47
2018-09-18T20:44:55.877Z,7.33
2018-09-18T20:47:26.968Z,7.50
2018-09-18T20:49:57.342Z,5.80
2018-09-18T20:52:28.527Z,6.23
2018-09-18T20:54:58.323Z,6.00
2018-09-18T20:57:27.258Z,6.30
2018-09-18T20:59:57.463Z,6.60
2018-09-18T21:02:26.034Z,6.20
2018-09-18T21:04:56.249Z,5.93
2018-09-18T21:07:25.614Z,5.67
2018-09-18T21:09:55.074Z,5.97
2018-09-18T21:12:25.250Z,5.73
2018-09-18T21:14:55.011Z,5.73
2018-09-18T21:17:24.662Z,5.57
2018-09-18T21:19:54.131Z,5.67
2018-09-18T21:22:23.703Z,5.57
2018-09-18T21:25:02.404Z,6.03
2018-09-18T21:27:32.476Z,5.47
2018-09-18T21:30:02.544Z,6.53
2018-09-18T21:32:31.676Z,5.47
2018-09-18T21:35:02.527Z,6.03
2018-09-18T21:37:32.247Z,6.03
2018-09-18T21:40:01.710Z,6.13
2018-09-18T21:42:31.028Z,5.77
2018-09-18T21:45:00.688Z,5.63
2018-09-18T21:47:30.305Z,5.90
2018-09-18T21:49:59.703Z,5.30
2018-09-18T21:52:29.078Z,5.23
2018-09-18T21:54:59.502Z,5.87
2018-09-18T21:57:29.036Z,6.33
2018-09-18T21:59:58.644Z,6.10
2018-09-18T22:02:28.234Z,5.87
2018-09-18T22:04:57.923Z,6.33
2018-09-18T22:07:27.236Z,6.03
2018-09-18T22:09:57.053Z,5.57
2018-09-18T22:12:27.243Z,6.00
2018-09-18T22:14:56.762Z,5.57
2018-09-18T22:17:26.237Z,6.27
2018-09-18T22:19:55.937Z,6.03
2018-09-18T22:22:26.100Z,5.60
2018-09-18T22:24:56.873Z,5.73
2018-09-18T22:27:26.524Z,5.60
2018-09-18T22:29:56.583Z,5.93
2018-09-18T22:32:26.151Z,5.23
2018-09-18T22:34:55.186Z,6.10
2018-09-18T22:37:24.117Z,5.70
2018-09-18T22:39:53.968Z,5.70
2018-09-18T22:42:23.726Z,6.07
2018-09-18T22:44:54.172Z,6.30
2018-09-18T22:47:22.994Z,5.33
2018-09-18T22:49:53.627Z,6.40
2018-09-18T22:52:23.327Z,6.00
2018-09-18T22:54:52.252Z,6.30
2018-09-18T22:57:22.056Z,6.00
2018-09-18T22:59:51.530Z,6.20
2018-09-18T23:02:20.989Z,6.07
2018-09-18T23:04:50.592Z,6.20
2018-09-18T23:07:20.612Z,6.20
2018-09-18T23:09:49.633Z,6.10
2018-09-18T23:12:19.244Z,6.23
2018-09-18T23:14:49.188Z,5.53
2018-09-18T23:17:19.326Z,6.17
2018-09-18T23:19:49.350Z,6.10
2018-09-18T23:22:18.465Z,5.60
2018-09-18T23:24:47.713Z,5.40
2018-09-18T23:27:16.140Z,6.17
2018-09-18T23:29:44.977Z,5.93
2018-09-18T23:32:14.752Z,6.17
2018-09-18T23:34:45.255Z,6.50
2018-09-18T23:37:14.199Z,6.10
2018-09-18T23:39:44.223Z,5.77
2018-09-18T23:42:14.737Z,6.03
2018-09-18T23:44:43.965Z,6.17
2018-09-18T23:47:13.054Z,5.83
2018-09-18T23:49:41.967Z,5.43
2018-09-18T23:52:11.794Z,5.80
2018-09-18T23:54:41.652Z,6.17
2018-09-18T23:57:10.553Z,5.63
2018-09-18T23:59:39.925Z,5.80
